Tokyo Downtown, Japan

3:40 PM JST on October 23, 2014 (GMT +0900)
Nezu | Change Station
CLOSE
Current Station
Personal Weather Station
Location: Bunkyo, Tokyo
Elevation: 30 ft
Nearby Weather Stations

Elev 30 ft 35.72 °N, 139.76 °E | Updated 15 seconds ago

Mostly Cloudy
Mostly Cloudy
60.8 °F
Feels Like 60.8 °F
N
0.0
Wind Variable Wind from NW
Gusts 2.2 mph

Today
High -- | Low -- °F
--% Chance of Precip.
Yesterday
High -- | Low -- °F
Precip. -- in
5:53 AM 4:56 PM
Waning Crescent, 0% visible
Pressure 30.06 in
Visibility 6.2 miles
Clouds Few 2000 ft
Mostly Cloudy 5000 ft
Dew Point 55 °F
Humidity 82%
Rainfall 0.15 in
Snow Depth Not available.
UV 1 out of 12
Pollen Not available.
Air Quality Not available.
Flu Activity Not available.
METAR RJTT 230630Z 01012KT 9999 FEW020 BKN050 15/11 Q1018 NOSIG RMK 1CU020 7SC050 A3007

More Conditions Fewer Conditions

Pressure 30.06 in
Visibility 6.2 miles
Clouds Few 2000 ft
Mostly Cloudy 5000 ft
Dew Point 55 °F
Humidity 82%
Rainfall 0.15 in
Snow Depth Not available.
UV 1 out of 12
Pollen Not available.
Air Quality Not available.
Flu Activity Not available.
METAR RJTT 230630Z 01012KT 9999 FEW020 BKN050 15/11 Q1018 NOSIG RMK 1CU020 7SC050 A3007

More Conditions Fewer Conditions

10-Day Weather Forecast

Almanac

Astronomy

Oct. 23, 2014 Rise Set
Actual Time 5:53 AM JST 4:56 PM JST
Civil Twilight 5:27 AM JST 5:22 PM JST
Nautical Twilight 4:58 AM JST 5:51 PM JST
Astronomical Twilight 4:28 AM JST 6:21 PM JST
Moon 4:58 AM JST 4:34 PM JST
Length of Visible Light 11h 54m
Length of Day
11h 02m
Tomorrow will be 2m 6s shorter.
Waning Crescent, 0% of the Moon is Illuminated
Today
Waning Crescent
Oct 23
New
Oct 30
First Quarter
Nov 6
Full
Nov 14
Last Quarter

Yesterday's Extremes

Country Highs Country Lows

Community

WunderPhotos

Upload Photos

1,764,194 photos uploaded!

Nearby

Snow Depth

Not available.

Earthquake Activity

City Distance Mag. Time & Date
No recent earthquake activity has been reported nearby.
Minimum magnitude displayed is 2.5.

Coastal Water Temperatures

Place Temperature
No Stations Reporting

Nearby Weather Stations